createdAt,value
2022-09-22T21:42:58.274Z,5.80
2022-09-22T21:45:24.964Z,5.70
2022-09-22T21:47:51.641Z,5.70
2022-09-22T21:50:18.310Z,5.70
2022-09-22T21:52:45.034Z,5.70
2022-09-22T21:55:11.710Z,5.60
2022-09-22T21:57:38.394Z,5.60
2022-09-22T22:00:07.151Z,5.60
2022-09-22T22:02:53.820Z,5.60
2022-09-22T22:05:20.618Z,5.60
2022-09-22T22:07:47.866Z,5.50
2022-09-22T22:10:15.871Z,5.50
2022-09-22T22:12:42.538Z,5.50
2022-09-22T22:15:09.646Z,5.40
2022-09-22T22:17:36.334Z,5.40
2022-09-22T22:20:04.830Z,5.40
2022-09-22T22:22:31.987Z,5.40
2022-09-22T22:24:58.666Z,5.40
2022-09-22T22:27:25.354Z,5.40
2022-09-22T22:29:52.087Z,5.30
2022-09-22T22:32:18.740Z,5.30
2022-09-22T22:34:45.421Z,5.30
2022-09-22T22:37:12.126Z,5.20
2022-09-22T22:39:38.924Z,5.20
2022-09-22T22:42:06.210Z,5.20
2022-09-22T22:44:32.936Z,5.10
2022-09-22T22:46:59.623Z,5.00
2022-09-22T22:49:28.155Z,5.00
2022-09-22T22:51:55.967Z,5.10
2022-09-22T22:54:22.623Z,5.10
2022-09-22T22:56:51.469Z,5.10
2022-09-22T22:59:18.482Z,5.10
2022-09-22T23:01:45.232Z,5.10
2022-09-22T23:04:12.154Z,4.90
2022-09-22T23:06:43.943Z,4.80
2022-09-22T23:09:13.969Z,4.70
2022-09-22T23:11:42.135Z,4.70
2022-09-22T23:14:11.507Z,4.70
2022-09-22T23:16:41.563Z,4.60
2022-09-22T23:19:11.413Z,4.60
2022-09-22T23:21:38.277Z,4.60
2022-09-22T23:24:05.586Z,4.50
2022-09-22T23:26:33.023Z,4.50
2022-09-22T23:29:01.387Z,4.50
2022-09-22T23:31:28.402Z,4.50
2022-09-22T23:33:55.156Z,4.50
2022-09-22T23:36:24.225Z,4.50
2022-09-22T23:38:55.683Z,4.40
2022-09-22T23:41:22.931Z,4.40
2022-09-22T23:43:49.813Z,4.40
2022-09-22T23:46:16.816Z,4.40
2022-09-22T23:48:43.591Z,4.30
2022-09-22T23:51:10.371Z,4.30
2022-09-22T23:53:37.655Z,4.30
2022-09-22T23:56:05.857Z,4.30
2022-09-22T23:58:33.472Z,4.30
